createdAt,value
2019-02-14T00:00:38.778Z,6.20
2019-02-14T00:03:06.198Z,6.20
2019-02-14T00:05:33.649Z,6.20
2019-02-14T00:08:01.064Z,6.10
2019-02-14T00:10:28.499Z,6.20
2019-02-14T00:12:56.219Z,6.20
2019-02-14T00:15:23.665Z,6.20
2019-02-14T00:17:51.066Z,6.10
2019-02-14T00:20:18.500Z,6.10
2019-02-14T00:22:45.915Z,6.10
2019-02-14T00:25:13.364Z,6.10
2019-02-14T00:27:40.790Z,6.10
2019-02-14T00:30:08.253Z,6.10
2019-02-14T00:32:35.593Z,6.00
2019-02-14T00:35:03.071Z,6.00
2019-02-14T00:37:30.479Z,6.00
2019-02-14T00:39:58.192Z,5.90
2019-02-14T00:42:25.626Z,6.00
2019-02-14T00:44:53.025Z,6.00
2019-02-14T00:47:20.453Z,6.00
2019-02-14T00:49:47.766Z,6.00
2019-02-14T00:52:15.173Z,6.00
2019-02-14T00:54:42.586Z,6.00
2019-02-14T00:57:10.313Z,5.90
2019-02-14T00:59:37.685Z,5.90
2019-02-14T01:02:05.001Z,5.90
2019-02-14T01:04:32.373Z,5.80
2019-02-14T01:06:59.728Z,5.80
2019-02-14T01:09:27.064Z,5.90
2019-02-14T01:11:54.488Z,5.80
2019-02-14T01:14:21.920Z,5.80
2019-02-14T01:16:49.334Z,5.80
2019-02-14T01:19:16.750Z,5.80
2019-02-14T01:21:44.167Z,5.70
2019-02-14T01:24:11.486Z,5.70
2019-02-14T01:26:38.913Z,5.70
2019-02-14T01:29:06.194Z,5.70
2019-02-14T01:31:33.672Z,5.70
2019-02-14T01:34:01.023Z,5.60
2019-02-14T01:36:28.344Z,5.60
2019-02-14T01:38:55.760Z,5.60
2019-02-14T01:41:23.391Z,5.60
2019-02-14T01:43:51.331Z,5.60
2019-02-14T01:46:18.653Z,5.60
2019-02-14T01:48:46.093Z,5.50
2019-02-14T01:51:13.489Z,5.50
2019-02-14T01:53:40.950Z,5.50
2019-02-14T01:56:08.369Z,5.50
2019-02-14T01:58:35.697Z,5.40
2019-02-14T02:01:03.004Z,5.50
2019-02-14T02:03:30.388Z,5.40
2019-02-14T02:05:57.687Z,5.50
2019-02-14T02:08:25.287Z,5.50
2019-02-14T02:10:52.584Z,5.60
2019-02-14T02:13:19.903Z,5.50
2019-02-14T02:15:47.229Z,5.60
2019-02-14T02:18:14.642Z,5.60
2019-02-14T02:20:42.030Z,5.60
2019-02-14T02:23:09.325Z,5.70
2019-02-14T02:25:36.654Z,5.70
2019-02-14T02:28:04.070Z,5.70
2019-02-14T02:30:31.394Z,5.80
2019-02-14T02:32:58.801Z,5.80
2019-02-14T02:35:26.190Z,5.80
2019-02-14T02:37:53.590Z,5.80
2019-02-14T02:40:20.867Z,5.80
2019-02-14T02:42:48.169Z,5.80
2019-02-14T02:45:15.518Z,5.80
2019-02-14T02:47:42.864Z,5.80
2019-02-14T02:50:11.177Z,5.80
2019-02-14T02:52:38.618Z,5.70
2019-02-14T02:55:06.082Z,5.80
2019-02-14T02:57:33.378Z,5.80
2019-02-14T03:00:00.662Z,5.80
2019-02-14T03:02:27.975Z,5.80
2019-02-14T03:04:55.394Z,5.80
2019-02-14T03:07:22.683Z,5.80
2019-02-14T03:09:49.988Z,5.80
2019-02-14T03:12:17.315Z,5.80
2019-02-14T03:14:44.708Z,5.80
2019-02-14T03:17:12.094Z,5.80
2019-02-14T03:19:39.518Z,5.80
2019-02-14T03:22:07.160Z,5.80
2019-02-14T03:24:34.481Z,5.80
2019-02-14T03:27:01.822Z,5.80
2019-02-14T03:29:29.584Z,5.90
2019-02-14T03:31:56.898Z,5.90
2019-02-14T03:34:24.347Z,5.90
2019-02-14T03:36:51.714Z,5.90
2019-02-14T03:39:19.031Z,5.90
2019-02-14T03:41:46.430Z,5.80
2019-02-14T03:44:13.868Z,5.90
2019-02-14T03:46:41.152Z,5.80
2019-02-14T03:49:08.452Z,5.80
2019-02-14T03:51:35.767Z,5.80
2019-02-14T03:54:03.784Z,5.80
2019-02-14T03:56:31.116Z,5.80
2019-02-14T03:58:58.532Z,5.70
2019-02-14T04:01:25.921Z,5.80
2019-02-14T04:03:53.354Z,5.80
2019-02-14T04:06:27.263Z,5.70
2019-02-14T04:08:49.986Z,5.70
2019-02-14T04:11:17.358Z,5.70
2019-02-14T04:13:44.772Z,5.80
2019-02-14T04:16:12.098Z,5.80
2019-02-14T04:18:39.394Z,5.70
2019-02-14T04:21:06.709Z,5.80
2019-02-14T04:23:34.045Z,5.80
2019-02-14T04:26:01.451Z,5.80
2019-02-14T04:28:29.032Z,5.80
2019-02-14T04:30:56.437Z,5.70
2019-02-14T04:33:23.714Z,5.80
2019-02-14T04:35:51.022Z,5.60
2019-02-14T04:38:18.362Z,5.60
2019-02-14T04:40:46.017Z,5.50
2019-02-14T04:43:13.318Z,5.50
2019-02-14T04:45:40.727Z,5.50
2019-02-14T04:48:08.020Z,5.40
2019-02-14T04:50:35.344Z,5.40
2019-02-14T04:53:02.661Z,5.40
2019-02-14T04:55:29.963Z,5.30
2019-02-14T04:57:57.418Z,5.30
2019-02-14T05:00:24.830Z,5.30
2019-02-14T05:02:52.160Z,5.30
2019-02-14T05:05:19.944Z,5.20
2019-02-14T05:07:47.121Z,5.20
2019-02-14T05:10:14.471Z,5.30
2019-02-14T05:12:41.812Z,5.30
2019-02-14T05:15:09.347Z,5.30
2019-02-14T05:17:36.638Z,5.40
2019-02-14T05:20:04.901Z,5.30
2019-02-14T05:22:32.302Z,5.40
2019-02-14T05:24:59.657Z,5.40
2019-02-14T05:27:27.085Z,5.40
2019-02-14T05:29:54.466Z,5.30
2019-02-14T05:32:22.201Z,5.30
2019-02-14T05:34:49.559Z,5.40
2019-02-14T05:37:16.976Z,5.30
2019-02-14T05:39:44.408Z,5.30
2019-02-14T05:42:11.751Z,5.30
2019-02-14T05:44:39.175Z,5.20
2019-02-14T05:47:06.545Z,5.20
2019-02-14T05:49:34.008Z,5.20
2019-02-14T05:52:01.391Z,5.20
2019-02-14T05:54:28.715Z,5.20
2019-02-14T05:56:56.089Z,5.20
2019-02-14T05:59:23.817Z,5.20
2019-02-14T06:01:51.246Z,5.20
2019-02-14T06:04:18.543Z,5.30
2019-02-14T06:06:45.894Z,5.30
2019-02-14T06:09:13.237Z,5.30
2019-02-14T06:11:40.677Z,5.40
2019-02-14T06:14:08.001Z,5.40
2019-02-14T06:16:35.327Z,5.40
2019-02-14T06:19:02.755Z,5.40
2019-02-14T06:21:30.173Z,5.40
2019-02-14T06:23:57.557Z,5.50
2019-02-14T06:26:24.926Z,5.50
2019-02-14T06:28:52.354Z,5.50
2019-02-14T06:31:19.752Z,5.50
2019-02-14T06:33:47.145Z,5.50
2019-02-14T06:36:14.481Z,5.50
2019-02-14T06:38:41.920Z,5.60
2019-02-14T06:41:09.272Z,5.50
2019-02-14T06:43:36.717Z,5.50
2019-02-14T06:46:04.144Z,5.60
2019-02-14T06:48:31.480Z,5.60
2019-02-14T06:50:58.921Z,5.60
2019-02-14T06:53:26.365Z,5.60
2019-02-14T06:55:53.757Z,5.60
2019-02-14T06:58:21.169Z,5.60
2019-02-14T07:00:48.643Z,5.60
2019-02-14T07:03:16.122Z,5.60
2019-02-14T07:05:43.526Z,5.70
2019-02-14T07:08:10.930Z,5.60
2019-02-14T07:10:38.277Z,5.60
2019-02-14T07:13:05.661Z,5.70
2019-02-14T07:15:33.129Z,5.70
2019-02-14T07:18:00.714Z,5.80
2019-02-14T07:20:28.107Z,5.80
2019-02-14T07:22:55.549Z,5.80
2019-02-14T07:25:22.971Z,5.80
2019-02-14T07:27:50.379Z,5.80
2019-02-14T07:30:18.876Z,5.90
2019-02-14T07:32:46.301Z,5.90
2019-02-14T07:35:13.612Z,6.00
2019-02-14T07:37:40.997Z,6.10
2019-02-14T07:40:09.989Z,6.10
2019-02-14T07:42:37.219Z,6.10
2019-02-14T07:45:05.967Z,6.00
2019-02-14T07:47:33.389Z,6.20
2019-02-14T07:50:00.791Z,6.30
2019-02-14T07:52:28.267Z,6.40
2019-02-14T07:54:55.716Z,6.50
2019-02-14T07:57:23.139Z,6.50
2019-02-14T07:59:50.454Z,6.50
2019-02-14T08:02:17.891Z,6.50
2019-02-14T08:04:45.193Z,6.50
2019-02-14T08:07:12.569Z,6.60
2019-02-14T08:09:40.907Z,6.60
2019-02-14T08:12:08.306Z,6.60
2019-02-14T08:14:35.753Z,6.60
2019-02-14T08:17:03.178Z,6.60
2019-02-14T08:19:30.532Z,6.60
2019-02-14T08:21:57.957Z,6.70
2019-02-14T08:24:25.384Z,6.80
2019-02-14T08:26:52.808Z,6.80
2019-02-14T08:29:20.180Z,6.80
2019-02-14T08:31:47.603Z,6.80
2019-02-14T08:34:15.029Z,6.80
2019-02-14T08:36:42.515Z,6.70
2019-02-14T08:39:09.958Z,6.70
2019-02-14T08:41:37.375Z,6.70
2019-02-14T08:44:04.819Z,6.70
2019-02-14T08:46:32.281Z,6.70
2019-02-14T08:48:59.699Z,6.70
2019-02-14T08:51:27.160Z,6.70
2019-02-14T08:53:54.463Z,6.70
2019-02-14T08:56:21.931Z,6.80
2019-02-14T08:58:49.285Z,6.80
2019-02-14T09:01:16.627Z,6.80
2019-02-14T09:03:44.061Z,6.80
2019-02-14T09:06:11.395Z,6.80
2019-02-14T09:08:38.704Z,6.80
2019-02-14T09:11:06.126Z,6.80
2019-02-14T09:13:33.517Z,6.80
2019-02-14T09:16:00.941Z,6.80
2019-02-14T09:18:28.660Z,6.80
2019-02-14T09:20:56.061Z,6.70
2019-02-14T09:23:23.446Z,6.90
2019-02-14T09:25:50.898Z,6.70
2019-02-14T09:28:18.302Z,6.80
2019-02-14T09:30:45.771Z,6.90
2019-02-14T09:33:13.265Z,7.00
2019-02-14T09:35:40.662Z,6.90
2019-02-14T09:38:08.156Z,6.70
2019-02-14T09:40:35.531Z,6.90
2019-02-14T09:43:02.977Z,6.90
2019-02-14T09:45:30.286Z,7.10
2019-02-14T09:47:58.071Z,7.10
2019-02-14T09:50:25.501Z,7.30
2019-02-14T09:52:52.954Z,7.40
2019-02-14T09:55:20.334Z,7.60
2019-02-14T09:57:47.662Z,7.90
2019-02-14T10:00:15.328Z,8.00
2019-02-14T10:02:42.759Z,8.00
2019-02-14T10:05:10.393Z,8.10
2019-02-14T10:07:37.841Z,8.00
2019-02-14T10:10:06.631Z,7.80
2019-02-14T10:12:34.490Z,7.90
2019-02-14T10:15:01.949Z,8.10
2019-02-14T10:17:29.364Z,8.10
2019-02-14T10:19:56.834Z,8.20
2019-02-14T10:22:24.275Z,8.30
2019-02-14T10:24:52.615Z,8.20
2019-02-14T10:27:20.246Z,8.30
2019-02-14T10:29:47.560Z,8.60
2019-02-14T10:32:14.892Z,8.80
2019-02-14T10:34:42.318Z,9.00
2019-02-14T10:37:11.288Z,9.00
2019-02-14T10:39:38.618Z,8.80
2019-02-14T10:42:06.069Z,8.90
2019-02-14T10:44:33.499Z,9.10
2019-02-14T10:47:01.362Z,9.00
2019-02-14T10:49:28.894Z,9.00
2019-02-14T10:51:56.310Z,9.10
2019-02-14T10:54:23.681Z,9.50
2019-02-14T10:56:51.112Z,9.60
2019-02-14T10:59:19.258Z,9.80
2019-02-14T11:01:46.604Z,9.70
2019-02-14T11:04:13.946Z,9.70
2019-02-14T11:06:41.422Z,9.80
2019-02-14T11:09:08.869Z,9.90
2019-02-14T11:11:36.462Z,10.30
2019-02-14T11:14:03.770Z,10.40
2019-02-14T11:16:31.218Z,10.40
2019-02-14T11:18:58.646Z,10.50
2019-02-14T11:21:26.152Z,10.80
2019-02-14T11:23:53.601Z,11.00
2019-02-14T11:26:21.022Z,11.20
2019-02-14T11:28:48.831Z,11.10
2019-02-14T11:31:16.604Z,11.00
2019-02-14T11:33:43.939Z,11.20
2019-02-14T11:36:11.757Z,11.40
2019-02-14T11:38:40.881Z,11.40
2019-02-14T11:41:08.431Z,11.50
2019-02-14T11:43:35.838Z,11.50
2019-02-14T11:46:03.146Z,11.60
2019-02-14T11:48:30.529Z,11.70
2019-02-14T11:50:57.966Z,11.80
2019-02-14T11:53:25.361Z,12.00
2019-02-14T11:55:53.282Z,12.10
2019-02-14T11:58:20.760Z,12.10
2019-02-14T12:00:48.193Z,12.00
2019-02-14T12:03:15.927Z,11.80
2019-02-14T12:05:43.366Z,11.80
2019-02-14T12:08:10.702Z,11.80
2019-02-14T12:10:38.362Z,11.80
2019-02-14T12:13:06.433Z,12.00
2019-02-14T12:15:33.817Z,12.10
2019-02-14T12:18:01.261Z,12.20
2019-02-14T12:20:29.205Z,12.40
2019-02-14T12:22:56.652Z,12.80
2019-02-14T12:25:24.478Z,13.00
2019-02-14T12:27:52.552Z,13.00
2019-02-14T12:30:19.912Z,13.10
2019-02-14T12:32:47.384Z,13.40
2019-02-14T12:35:14.866Z,13.50
2019-02-14T12:37:42.311Z,13.70
2019-02-14T12:40:10.067Z,13.70
2019-02-14T12:42:37.452Z,13.70
2019-02-14T12:45:06.265Z,13.60
2019-02-14T12:47:33.703Z,13.80
2019-02-14T12:50:01.179Z,14.00
2019-02-14T12:52:28.599Z,14.00
2019-02-14T12:54:56.029Z,14.20
2019-02-14T12:57:23.390Z,14.30
2019-02-14T12:59:50.857Z,14.20
2019-02-14T13:02:18.617Z,14.30
2019-02-14T13:04:46.013Z,14.40
2019-02-14T13:07:13.464Z,14.60
2019-02-14T13:09:40.958Z,15.10
2019-02-14T13:12:08.404Z,15.70
2019-02-14T13:14:35.889Z,16.40
2019-02-14T13:17:03.334Z,17.00
2019-02-14T13:19:30.792Z,17.40
2019-02-14T13:21:58.252Z,18.00
2019-02-14T13:24:25.761Z,18.30
2019-02-14T13:26:55.185Z,18.30
2019-02-14T13:29:22.515Z,18.10
2019-02-14T13:31:50.001Z,18.30
2019-02-14T13:34:17.373Z,18.60
2019-02-14T13:36:44.859Z,19.20
2019-02-14T13:39:12.299Z,19.80
2019-02-14T13:41:39.824Z,20.70
2019-02-14T13:44:07.257Z,21.70
2019-02-14T13:46:34.711Z,22.60
2019-02-14T13:49:02.230Z,23.30
2019-02-14T13:51:29.687Z,24.20
2019-02-14T13:53:57.147Z,25.10
2019-02-14T13:56:24.590Z,25.60
2019-02-14T13:58:52.432Z,26.20
2019-02-14T14:01:19.935Z,26.70
2019-02-14T14:03:47.370Z,26.80
2019-02-14T14:06:14.853Z,26.60
2019-02-14T14:08:42.299Z,26.60
2019-02-14T14:11:09.639Z,26.80
2019-02-14T14:13:37.090Z,27.20
2019-02-14T14:16:04.601Z,27.50
2019-02-14T14:18:32.231Z,27.60
2019-02-14T14:20:59.673Z,27.50
2019-02-14T14:23:27.118Z,27.70
2019-02-14T14:25:54.601Z,27.80
2019-02-14T14:28:21.957Z,27.60
2019-02-14T14:30:49.401Z,26.90
2019-02-14T14:33:17.668Z,25.30
2019-02-14T14:35:45.162Z,23.50
2019-02-14T14:38:12.976Z,23.10
2019-02-14T14:40:40.817Z,23.50
2019-02-14T14:43:27.466Z,23.80
2019-02-14T14:46:20.460Z,24.00
2019-02-14T14:48:47.907Z,23.70
2019-02-14T14:51:15.269Z,23.20
2019-02-14T14:53:43.072Z,22.70
2019-02-14T14:56:10.511Z,22.20
2019-02-14T14:58:38.279Z,21.80
2019-02-14T15:01:05.730Z,21.30
2019-02-14T15:03:33.187Z,20.90
2019-02-14T15:06:00.673Z,20.60
2019-02-14T15:08:28.104Z,20.20
2019-02-14T15:10:55.648Z,19.80
2019-02-14T15:13:23.178Z,19.40
2019-02-14T15:15:50.616Z,19.10
2019-02-14T15:18:18.459Z,18.60
2019-02-14T15:20:45.921Z,18.30
2019-02-14T15:23:13.666Z,18.00
2019-02-14T15:25:41.128Z,17.50
2019-02-14T15:28:08.603Z,17.20
2019-02-14T15:30:36.060Z,16.90
2019-02-14T15:33:03.537Z,16.60
2019-02-14T15:35:30.985Z,16.40
2019-02-14T15:37:58.440Z,16.20
2019-02-14T15:40:25.898Z,16.00
2019-02-14T15:42:53.378Z,15.80
2019-02-14T15:45:20.866Z,15.70
2019-02-14T15:47:48.362Z,15.50
2019-02-14T15:50:15.832Z,15.30
2019-02-14T15:52:43.874Z,15.10
2019-02-14T15:55:11.369Z,14.90
2019-02-14T15:57:40.480Z,14.80
2019-02-14T16:00:10.654Z,14.70
2019-02-14T16:02:37.895Z,14.60
2019-02-14T16:05:05.846Z,14.50
2019-02-14T16:07:33.219Z,14.30
2019-02-14T16:10:03.314Z,14.10
2019-02-14T16:12:29.953Z,14.00
2019-02-14T16:14:57.415Z,13.90
2019-02-14T16:17:24.834Z,13.70
2019-02-14T16:19:52.262Z,13.60
2019-02-14T16:22:19.608Z,13.50
2019-02-14T16:24:47.019Z,13.40
2019-02-14T16:27:14.327Z,13.30
2019-02-14T16:29:41.791Z,13.20
2019-02-14T16:32:09.187Z,13.10
2019-02-14T16:34:36.911Z,13.00
2019-02-14T16:37:05.635Z,12.90
2019-02-14T16:39:32.997Z,12.80
2019-02-14T16:42:00.331Z,12.70
2019-02-14T16:44:27.775Z,12.60
2019-02-14T16:46:55.209Z,12.50
2019-02-14T16:49:22.727Z,12.40
2019-02-14T16:51:50.460Z,12.30
2019-02-14T16:54:17.905Z,12.30
2019-02-14T16:56:45.334Z,12.20
2019-02-14T16:59:12.829Z,12.10
2019-02-14T17:01:40.313Z,12.00
2019-02-14T17:04:08.171Z,11.90
2019-02-14T17:06:35.642Z,11.80
2019-02-14T17:09:04.368Z,11.80
2019-02-14T17:11:31.845Z,11.70
2019-02-14T17:13:59.313Z,11.60
2019-02-14T17:16:27.118Z,11.50
2019-02-14T17:18:54.500Z,11.50
2019-02-14T17:21:21.952Z,11.40
2019-02-14T17:23:49.699Z,11.40
2019-02-14T17:26:17.112Z,11.30
2019-02-14T17:28:44.577Z,11.20
2019-02-14T17:31:12.031Z,11.20
2019-02-14T17:33:39.507Z,11.00
2019-02-14T17:36:06.949Z,11.10
2019-02-14T17:38:34.387Z,11.00
2019-02-14T17:41:01.747Z,10.90
2019-02-14T17:43:29.368Z,10.80
2019-02-14T17:45:57.164Z,10.80
2019-02-14T17:48:26.541Z,10.70
2019-02-14T17:50:54.174Z,10.70
2019-02-14T17:53:21.648Z,10.60
2019-02-14T17:55:49.545Z,10.50
2019-02-14T17:58:17.254Z,10.40
2019-02-14T18:00:44.674Z,10.40
2019-02-14T18:03:12.117Z,10.40
2019-02-14T18:05:39.594Z,10.30
2019-02-14T18:08:07.506Z,10.20
2019-02-14T18:10:35.388Z,10.20
2019-02-14T18:13:02.876Z,10.10
2019-02-14T18:15:30.383Z,10.10
2019-02-14T18:17:57.944Z,10.00
2019-02-14T18:20:27.157Z,9.90
2019-02-14T18:22:54.606Z,9.90
2019-02-14T18:25:22.289Z,9.90
2019-02-14T18:27:49.790Z,10.00
2019-02-14T18:30:17.363Z,9.80
2019-02-14T18:32:46.762Z,9.90
2019-02-14T18:35:14.167Z,9.90
2019-02-14T18:37:41.639Z,9.80
2019-02-14T18:40:09.465Z,9.70
2019-02-14T18:42:37.710Z,9.70
2019-02-14T18:45:07.705Z,9.70
2019-02-14T18:47:39.723Z,9.60
2019-02-14T18:50:04.764Z,9.60
2019-02-14T18:52:32.228Z,9.50
2019-02-14T18:54:59.768Z,9.50
2019-02-14T18:57:27.227Z,9.40
2019-02-14T18:59:54.701Z,9.40
2019-02-14T19:02:22.799Z,9.40
2019-02-14T19:04:50.803Z,9.30
2019-02-14T19:07:18.235Z,9.30
2019-02-14T19:09:45.972Z,9.30
2019-02-14T19:12:13.971Z,9.20
2019-02-14T19:14:41.917Z,9.20
2019-02-14T19:17:09.415Z,9.10
2019-02-14T19:19:36.993Z,9.10
2019-02-14T19:22:04.474Z,9.00
2019-02-14T19:24:32.073Z,9.00
2019-02-14T19:26:59.554Z,9.00
2019-02-14T19:29:27.376Z,8.90
2019-02-14T19:31:54.881Z,8.90
2019-02-14T19:34:22.776Z,8.80
2019-02-14T19:36:50.292Z,8.80
2019-02-14T19:39:17.814Z,8.80
2019-02-14T19:41:45.296Z,8.80
2019-02-14T19:44:12.841Z,8.70
2019-02-14T19:46:40.409Z,8.70
2019-02-14T19:49:08.376Z,8.80
2019-02-14T19:51:35.951Z,8.70
2019-02-14T19:54:03.710Z,8.70
2019-02-14T19:56:31.216Z,8.70
2019-02-14T19:58:58.726Z,8.60
2019-02-14T20:01:26.680Z,8.50
2019-02-14T20:03:54.161Z,8.60
2019-02-14T20:06:21.766Z,8.50
2019-02-14T20:08:51.832Z,8.50
2019-02-14T20:11:19.738Z,8.50
2019-02-14T20:13:49.641Z,8.50
2019-02-14T20:16:16.600Z,8.50
2019-02-14T20:18:44.409Z,8.40
2019-02-14T20:21:12.886Z,8.40
2019-02-14T20:23:40.742Z,8.30
2019-02-14T20:26:08.243Z,8.30
2019-02-14T20:28:35.715Z,8.30
2019-02-14T20:31:03.338Z,8.30
2019-02-14T20:33:31.215Z,8.30
2019-02-14T20:35:58.769Z,8.20
2019-02-14T20:38:26.815Z,8.20
2019-02-14T20:40:54.314Z,8.10
2019-02-14T20:43:21.843Z,8.20
2019-02-14T20:45:49.280Z,8.10
2019-02-14T20:48:16.845Z,8.10
2019-02-14T20:50:44.801Z,8.10
2019-02-14T20:53:12.307Z,8.00
2019-02-14T20:55:39.807Z,8.00
2019-02-14T20:58:07.401Z,7.90
2019-02-14T21:00:35.967Z,7.90
2019-02-14T21:03:03.763Z,7.90
2019-02-14T21:05:31.622Z,7.80
2019-02-14T21:07:59.156Z,7.90
2019-02-14T21:10:26.646Z,7.90
2019-02-14T21:12:54.133Z,7.80
2019-02-14T21:15:21.638Z,7.80
2019-02-14T21:17:49.121Z,7.80
2019-02-14T21:20:16.603Z,7.80
2019-02-14T21:22:44.074Z,7.80
2019-02-14T21:25:12.357Z,7.80
2019-02-14T21:27:39.849Z,7.70
2019-02-14T21:30:07.489Z,7.60
2019-02-14T21:32:35.032Z,7.60
2019-02-14T21:35:02.524Z,7.60
2019-02-14T21:37:30.215Z,7.60
2019-02-14T21:39:57.966Z,7.60
2019-02-14T21:42:29.319Z,7.50
2019-02-14T21:44:54.706Z,7.50
2019-02-14T21:47:22.294Z,7.50
2019-02-14T21:49:50.513Z,7.50
2019-02-14T21:52:17.965Z,7.40
2019-02-14T21:54:45.413Z,7.40
2019-02-14T21:57:12.902Z,7.50
2019-02-14T21:59:40.359Z,7.50
2019-02-14T22:02:07.992Z,7.40
2019-02-14T22:04:35.466Z,7.40
2019-02-14T22:07:03.456Z,7.30
2019-02-14T22:09:30.897Z,7.30
2019-02-14T22:11:58.744Z,7.40
2019-02-14T22:14:26.182Z,7.30
2019-02-14T22:16:53.682Z,7.30
2019-02-14T22:19:21.409Z,7.30
2019-02-14T22:21:48.898Z,7.30
2019-02-14T22:24:16.642Z,7.20
2019-02-14T22:26:44.408Z,7.30
2019-02-14T22:29:11.835Z,7.20
2019-02-14T22:31:39.194Z,7.20
2019-02-14T22:34:07.139Z,7.20
2019-02-14T22:36:34.887Z,7.20
2019-02-14T22:39:02.535Z,7.20
2019-02-14T22:41:29.868Z,7.20
2019-02-14T22:43:57.267Z,7.10
2019-02-14T22:46:24.682Z,7.20
2019-02-14T22:48:52.190Z,7.20
2019-02-14T22:51:19.611Z,7.10
2019-02-14T22:53:47.038Z,7.20
2019-02-14T22:56:14.500Z,7.10
2019-02-14T22:58:41.926Z,7.00
2019-02-14T23:01:09.534Z,7.00
2019-02-14T23:03:36.891Z,7.00
2019-02-14T23:06:04.343Z,7.00
2019-02-14T23:08:32.110Z,7.00
2019-02-14T23:10:59.544Z,7.00
2019-02-14T23:13:27.012Z,7.00
2019-02-14T23:15:54.433Z,6.90
2019-02-14T23:18:21.940Z,6.90
2019-02-14T23:20:49.251Z,6.90
2019-02-14T23:23:16.698Z,6.90
2019-02-14T23:25:44.110Z,6.90
2019-02-14T23:28:11.361Z,6.90
2019-02-14T23:30:38.798Z,6.80
2019-02-14T23:33:06.621Z,6.80
2019-02-14T23:35:33.952Z,6.80
2019-02-14T23:38:01.404Z,6.80
2019-02-14T23:40:28.860Z,6.70
2019-02-14T23:43:04.089Z,6.70
2019-02-14T23:45:25.414Z,6.70
2019-02-14T23:47:52.825Z,6.80
2019-02-14T23:50:20.539Z,6.70
2019-02-14T23:52:48.210Z,6.70
2019-02-14T23:55:15.775Z,6.70
2019-02-14T23:57:43.542Z,6.70
